This is the latest recevied weather packets stored in our database for station/object WP4PW. If no packets are shown the sender has not sent any weather packets the latest 10 day(s).
| Time | Temp. | Humidity | Pressure | Rain* | Wind** | Luminosity | Snow |
|---|---|---|---|---|---|---|---|
| 1778001627 | 31.67° C | 72% | 1021.7 hPa | 0 mm | - | 779 W/m² | - |
| 1778001322 | 30.56° C | 75% | 1021.6 hPa | 0 mm | - | 969 W/m² | - |
| 1778001020 | 30.56° C | 75% | 1021.6 hPa | 0 mm | - | 394 W/m² | - |
| 1778000716 | 31.11° C | 75% | 1021.8 hPa | 0 mm | - | 256 W/m² | - |
| 1778000413 | 31.11° C | 74% | 1021.7 hPa | 0 mm | - | 875 W/m² | - |
| 1778000108 | 30° C | 77% | 1021.6 hPa | 0 mm | - | 876 W/m² | - |
| 1777999804 | 30.56° C | 77% | 1021.8 hPa | 0 mm | - | 185 W/m² | - |
| 1777999500 | 30° C | 78% | 1021.7 hPa | 0 mm | - | 314 W/m² | - |
| 1777999198 | 30.56° C | 77% | 1021.8 hPa | 0 mm | - | 230 W/m² | - |
| 1777998896 | 30.56° C | 76% | 1021.9 hPa | 0 mm | - | 391 W/m² | - |
| 1777998596 | 30.56° C | 79% | 1021.9 hPa | 0 mm | - | 400 W/m² | - |
| 1777998291 | 30° C | 80% | 1022.1 hPa | 0 mm | - | 393 W/m² | - |
| 1777997988 | 31.11° C | 78% | 1021.8 hPa | 0 mm | - | 762 W/m² | - |
| 1777997684 | 30.56° C | 76% | 1022 hPa | 0 mm | - | 852 W/m² | - |
| 1777997382 | 30° C | 79% | 1022.1 hPa | 0 mm | - | 916 W/m² | - |
| 1777997080 | 30.56° C | 80% | 1022 hPa | 0 mm | - | 146 W/m² | - |
| 1777996776 | 30° C | 80% | 1021.9 hPa | 0 mm | - | 362 W/m² | - |
| 1777996473 | 30.56° C | 78% | 1022.3 hPa | 0 mm | - | 840 W/m² | - |
| 1777996169 | 30.56° C | 80% | 1022.1 hPa | 0 mm | - | 838 W/m² | - |
| 1777995866 | 30.56° C | 79% | 1022.1 hPa | 0 mm | - | 838 W/m² | - |
| 1777995562 | 30.56° C | 80% | 1022 hPa | 0 mm | - | 831 W/m² | - |
| 1777995260 | 30° C | 79% | 1021.9 hPa | 0 mm | - | 849 W/m² | - |
| 1777994956 | 30.56° C | 79% | 1021.9 hPa | 0 mm | - | 784 W/m² | - |
| 1777994654 | 31.11° C | 79% | 1022.2 hPa | 0 mm | - | 276 W/m² | - |
| 1777994347 | 31.11° C | 79% | 1022.1 hPa | 0 mm | - | 878 W/m² | - |
* Rain latest hour (hover to see other rain measurements)
** Current wind speed in m/s (hover to see current wind gust speed)